createdAt,value
2022-09-22T00:01:46.086Z,11.20
2022-09-22T00:06:51.382Z,11.28
2022-09-22T00:11:54.036Z,11.28
2022-09-22T00:16:58.961Z,11.11
2022-09-22T00:22:01.087Z,11.04
2022-09-22T00:27:03.098Z,11.13
2022-09-22T00:32:07.596Z,11.13
2022-09-22T00:37:09.739Z,11.09
2022-09-22T00:42:14.356Z,11.03
2022-09-22T00:47:26.085Z,11.14
2022-09-22T00:52:48.543Z,11.09
2022-09-22T00:57:53.211Z,11.11
2022-09-22T01:02:59.176Z,10.87
2022-09-22T01:08:02.519Z,11.16
2022-09-22T01:13:39.835Z,11.02
2022-09-22T01:18:54.115Z,10.90
2022-09-22T01:24:27.205Z,11.07
2022-09-22T01:29:58.336Z,11.16
2022-09-22T01:35:18.601Z,11.10
2022-09-22T01:40:31.537Z,10.95
2022-09-22T01:45:35.464Z,11.20
2022-09-22T01:50:46.075Z,11.16
2022-09-22T01:55:53.235Z,11.37
2022-09-22T02:01:00.947Z,11.42
2022-09-22T02:06:06.739Z,11.47
2022-09-22T02:11:14.096Z,11.48
2022-09-22T02:16:18.925Z,11.39
2022-09-22T02:21:21.866Z,11.56
2022-09-22T02:26:28.349Z,11.56
2022-09-22T02:31:34.243Z,11.58
2022-09-22T02:36:40.982Z,11.71
2022-09-22T02:42:15.736Z,11.83
2022-09-22T02:47:24.872Z,11.68
2022-09-22T02:52:26.820Z,11.69
2022-09-22T02:57:28.979Z,11.84
2022-09-22T03:02:30.976Z,11.61
2022-09-22T03:07:33.072Z,11.66
2022-09-22T03:12:35.058Z,11.82
2022-09-22T03:17:37.425Z,11.79
2022-09-22T03:22:39.473Z,11.81
2022-09-22T03:27:41.469Z,12.01
2022-09-22T03:32:43.471Z,11.98
2022-09-22T03:37:46.372Z,11.63
2022-09-22T03:42:48.461Z,11.99
2022-09-22T03:47:50.448Z,11.90
2022-09-22T03:52:53.001Z,12.06
2022-09-22T03:57:55.301Z,12.02
2022-09-22T04:02:58.704Z,11.86
2022-09-22T04:08:01.022Z,12.00
2022-09-22T04:13:02.976Z,12.10
2022-09-22T04:18:05.529Z,12.14
2022-09-22T04:23:07.529Z,11.92
2022-09-22T04:28:09.551Z,11.69
2022-09-22T04:33:11.471Z,11.77
2022-09-22T04:38:14.767Z,12.03
2022-09-22T04:43:17.102Z,12.17
2022-09-22T04:48:19.640Z,12.18
2022-09-22T04:53:21.603Z,12.20
2022-09-22T04:58:24.106Z,12.29
2022-09-22T05:03:26.035Z,12.18
2022-09-22T05:08:27.999Z,12.32
2022-09-22T05:13:30.293Z,12.37
2022-09-22T05:18:33.009Z,12.66
2022-09-22T05:23:35.818Z,12.26
2022-09-22T05:28:37.770Z,12.59
2022-09-22T05:33:39.665Z,12.64
2022-09-22T05:38:41.809Z,12.69
2022-09-22T05:43:43.821Z,12.67
2022-09-22T05:48:45.781Z,12.66
2022-09-22T05:53:47.705Z,12.78
2022-09-22T05:58:49.809Z,13.02
2022-09-22T06:03:51.703Z,13.50
2022-09-22T06:08:53.604Z,13.67
2022-09-22T06:13:55.642Z,13.44
2022-09-22T06:18:57.613Z,13.58
2022-09-22T06:23:59.591Z,13.82
2022-09-22T06:29:01.873Z,14.06
2022-09-22T06:34:07.523Z,14.06
2022-09-22T06:39:10.731Z,13.78
2022-09-22T06:44:12.756Z,14.18
2022-09-22T06:49:14.855Z,14.12
2022-09-22T06:54:16.829Z,14.48
2022-09-22T06:59:19.131Z,14.37
2022-09-22T07:04:23.232Z,14.62
2022-09-22T07:09:25.190Z,14.81
2022-09-22T07:14:28.367Z,14.33
2022-09-22T07:19:36.421Z,14.37
2022-09-22T07:24:38.420Z,14.50
2022-09-22T07:29:40.560Z,14.94
2022-09-22T07:34:42.497Z,15.34
2022-09-22T07:39:45.723Z,15.71
2022-09-22T07:45:06.332Z,15.97
2022-09-22T07:50:08.775Z,15.74
2022-09-22T07:55:10.787Z,15.73
2022-09-22T08:00:13.502Z,16.30
2022-09-22T08:05:16.376Z,16.63
2022-09-22T08:10:19.400Z,15.96
2022-09-22T08:15:26.827Z,16.51
2022-09-22T08:20:29.792Z,17.17
2022-09-22T08:25:31.815Z,17.29
2022-09-22T08:30:35.687Z,16.54
2022-09-22T08:35:37.989Z,16.64
2022-09-22T08:40:47.214Z,16.89
2022-09-22T08:45:50.067Z,16.71
2022-09-22T08:51:16.636Z,16.41
2022-09-22T08:56:30.648Z,16.34
2022-09-22T09:02:02.645Z,16.11
2022-09-22T09:07:10.405Z,16.30
2022-09-22T09:12:38.942Z,16.18
2022-09-22T09:17:44.608Z,16.27
2022-09-22T09:22:55.684Z,16.64
2022-09-22T09:28:13.243Z,16.95
2022-09-22T09:33:33.386Z,17.45
2022-09-22T09:38:42.883Z,17.02
2022-09-22T09:43:45.625Z,16.41
2022-09-22T09:49:10.789Z,16.67
2022-09-22T09:54:17.363Z,16.82
2022-09-22T09:59:46.149Z,16.93
2022-09-22T10:04:56.168Z,17.14
2022-09-22T10:10:32.553Z,16.65
2022-09-22T10:15:37.391Z,16.65
2022-09-22T10:20:39.438Z,16.82
2022-09-22T10:25:41.389Z,17.41
2022-09-22T10:30:45.422Z,17.62
2022-09-22T10:36:09.246Z,17.35
2022-09-22T10:41:17.885Z,18.19
2022-09-22T10:46:23.107Z,17.96
2022-09-22T10:51:38.860Z,18.02
2022-09-22T10:56:46.052Z,17.52
2022-09-22T11:02:18.308Z,17.67
2022-09-22T11:08:00.848Z,17.74
2022-09-22T11:13:08.128Z,17.48
2022-09-22T11:18:28.649Z,18.00
2022-09-22T11:24:03.375Z,17.92
2022-09-22T11:29:15.852Z,18.26
2022-09-22T11:34:20.985Z,18.80
2022-09-22T11:40:02.220Z,19.18
2022-09-22T11:45:19.281Z,19.30
2022-09-22T11:50:35.214Z,19.62
2022-09-22T11:55:50.960Z,18.40
2022-09-22T12:01:06.010Z,18.52
2022-09-22T12:06:14.829Z,18.11
2022-09-22T12:11:19.629Z,18.52
2022-09-22T12:16:31.359Z,18.48
2022-09-22T12:21:54.901Z,18.57
2022-09-22T12:26:57.076Z,18.70
2022-09-22T12:31:59.761Z,18.18
2022-09-22T12:37:39.197Z,17.64
2022-09-22T12:42:51.831Z,17.06
2022-09-22T12:47:56.859Z,17.14
2022-09-22T12:53:03.998Z,17.13
2022-09-22T12:58:21.432Z,17.03
2022-09-22T13:03:26.462Z,17.47
2022-09-22T13:08:28.384Z,17.59
2022-09-22T13:13:47.522Z,17.08
2022-09-22T13:18:52.840Z,17.96
2022-09-22T13:23:54.828Z,17.34
2022-09-22T13:29:19.788Z,17.33
2022-09-22T13:34:24.677Z,17.52
2022-09-22T13:39:32.085Z,16.92
2022-09-22T13:44:38.626Z,16.81
2022-09-22T13:49:51.977Z,16.81
2022-09-22T13:55:00.605Z,17.31
2022-09-22T14:00:05.275Z,16.61
2022-09-22T14:05:16.829Z,16.82
2022-09-22T14:10:20.893Z,17.34
2022-09-22T14:15:39.003Z,17.72
2022-09-22T14:20:43.740Z,17.00
2022-09-22T14:25:46.119Z,16.62
2022-09-22T14:30:49.542Z,16.40
2022-09-22T14:36:04.083Z,16.42
2022-09-22T14:41:21.724Z,15.90
2022-09-22T14:46:41.874Z,16.26
2022-09-22T14:51:47.297Z,16.24
2022-09-22T14:56:50.728Z,16.07
2022-09-22T15:02:18.655Z,15.81
2022-09-22T15:07:30.121Z,16.08
2022-09-22T15:12:46.184Z,15.81
2022-09-22T15:18:15.317Z,15.99
2022-09-22T15:23:47.568Z,15.73
2022-09-22T15:28:51.134Z,15.44
2022-09-22T15:34:04.290Z,15.38
2022-09-22T15:39:13.729Z,15.39
2022-09-22T15:44:16.733Z,14.97
2022-09-22T15:49:23.329Z,14.93
2022-09-22T15:54:26.508Z,14.88
2022-09-22T15:59:32.386Z,15.01
2022-09-22T16:04:34.396Z,14.99
2022-09-22T16:09:36.489Z,14.89
2022-09-22T16:14:41.618Z,14.89
2022-09-22T16:19:43.993Z,15.04
2022-09-22T16:24:45.917Z,14.89
2022-09-22T16:29:48.675Z,14.74
2022-09-22T16:34:53.616Z,14.64
2022-09-22T16:39:56.136Z,14.68
2022-09-22T16:44:58.438Z,14.39
2022-09-22T16:50:00.924Z,14.73
2022-09-22T16:55:06.482Z,14.53
2022-09-22T17:00:11.708Z,14.36
2022-09-22T17:05:14.833Z,14.41
2022-09-22T17:10:19.272Z,14.77
2022-09-22T17:15:27.621Z,14.60
2022-09-22T17:20:39.059Z,14.63
2022-09-22T17:25:41.713Z,14.53
2022-09-22T17:30:44.205Z,14.60
2022-09-22T17:35:46.270Z,14.59
2022-09-22T17:40:48.470Z,14.58
2022-09-22T17:45:51.079Z,14.67
2022-09-22T17:51:11.477Z,14.62
2022-09-22T17:56:13.698Z,14.47
2022-09-22T18:01:17.223Z,14.34
2022-09-22T18:06:20.995Z,14.10
2022-09-22T18:11:26.167Z,13.79
2022-09-22T18:16:33.429Z,13.82
2022-09-22T18:21:39.319Z,13.67
2022-09-22T18:26:43.113Z,13.55
2022-09-22T18:31:45.534Z,13.50
2022-09-22T18:36:47.812Z,13.26
2022-09-22T18:41:50.307Z,13.26
2022-09-22T18:46:53.993Z,13.25
2022-09-22T18:52:00.630Z,13.22
2022-09-22T18:57:06.507Z,13.21
2022-09-22T19:02:11.913Z,13.09
2022-09-22T19:07:32.682Z,12.95
2022-09-22T19:12:39.732Z,12.71
2022-09-22T19:17:45.723Z,12.41
2022-09-22T19:22:49.423Z,12.32
2022-09-22T19:27:52.643Z,12.36
2022-09-22T19:32:55.117Z,12.31
2022-09-22T19:37:57.425Z,12.15
2022-09-22T19:43:01.898Z,12.10
2022-09-22T19:48:03.934Z,11.98
2022-09-22T19:53:06.537Z,11.92
2022-09-22T19:58:08.696Z,11.94
2022-09-22T20:03:11.137Z,11.78
2022-09-22T20:08:15.919Z,11.84
2022-09-22T20:13:37.259Z,11.96
2022-09-22T20:18:41.428Z,12.06
2022-09-22T20:23:43.857Z,12.17
2022-09-22T20:28:47.576Z,12.17
2022-09-22T20:33:49.472Z,12.20
2022-09-22T20:38:51.544Z,12.17
2022-09-22T20:43:54.106Z,12.23
2022-09-22T20:48:57.807Z,12.10
2022-09-22T20:53:59.640Z,12.11
2022-09-22T20:59:02.559Z,12.03
2022-09-22T21:04:04.974Z,11.97
2022-09-22T21:09:28.104Z,11.96
2022-09-22T21:14:31.923Z,12.04
2022-09-22T21:19:34.498Z,11.94
2022-09-22T21:24:36.642Z,11.77
2022-09-22T21:29:38.951Z,11.87
2022-09-22T21:34:42.647Z,11.87
2022-09-22T21:39:44.613Z,12.01
2022-09-22T21:44:48.566Z,11.99
2022-09-22T21:49:50.505Z,11.88
2022-09-22T21:54:52.568Z,11.97
2022-09-22T21:59:56.746Z,11.90
2022-09-22T22:04:58.775Z,11.91
2022-09-22T22:10:00.660Z,11.83
2022-09-22T22:15:02.793Z,11.91
2022-09-22T22:20:05.192Z,11.86
2022-09-22T22:25:12.756Z,11.84
2022-09-22T22:30:14.743Z,11.88
2022-09-22T22:35:16.803Z,11.94
2022-09-22T22:40:19.163Z,11.72
2022-09-22T22:45:21.185Z,11.67
2022-09-22T22:50:23.934Z,11.52
2022-09-22T22:55:25.984Z,11.45
2022-09-22T23:00:28.025Z,11.45
2022-09-22T23:05:30.252Z,11.40
2022-09-22T23:10:34.161Z,11.30
2022-09-22T23:15:36.160Z,11.28
2022-09-22T23:20:38.339Z,11.20
2022-09-22T23:25:40.404Z,11.09
2022-09-22T23:30:42.383Z,10.93
2022-09-22T23:35:53.476Z,10.81
2022-09-22T23:40:58.528Z,10.67
2022-09-22T23:46:00.848Z,10.53
2022-09-22T23:51:03.935Z,10.44
2022-09-22T23:56:06.957Z,10.31
